<?xml version='1.0' encoding='UTF-8'?><gpx version="1.1" creator="JPX - https://github.com/jenetics/jpx" xmlns="http://www.topografix.com/GPX/1/1"><trk><trkseg><trkpt lat="44.82353688784449" lon="9.197096189173177"><ele>416.0</ele><time>2026-04-30T12:19:12Z</time></trkpt><trkpt lat="44.82356890037725" lon="9.197012717654102"><ele>416.0</ele><time>2026-04-30T12:19:18Z</time></trkpt><trkpt lat="44.823531985093304" lon="9.196932000061597"><ele>416.0</ele><time>2026-04-30T12:19:23Z</time></trkpt><trkpt lat="44.82354346764187" lon="9.196843306119593"><ele>416.0</ele><time>2026-04-30T12:19:28Z</time></trkpt><trkpt lat="44.823512152007886" lon="9.196746834317219"><ele>416.0</ele><time>2026-04-30T12:19:34Z</time></trkpt><trkpt lat="44.82351345178959" lon="9.196653565681695"><ele>416.0</ele><time>2026-04-30T12:19:40Z</time></trkpt><trkpt lat="44.82352944724014" lon="9.196549867254758"><ele>416.0</ele><time>2026-04-30T12:19:46Z</time></trkpt><trkpt lat="44.82350018710982" lon="9.196453024965942"><ele>415.4285714285714</ele><time>2026-04-30T12:19:52Z</time></trkpt><trkpt lat="44.82347865028225" lon="9.196356255362554"><ele>414.8571428571429</ele><time>2026-04-30T12:19:57Z</time></trkpt><trkpt lat="44.82351893838779" lon="9.196277465025956"><ele>414.2857142857143</ele><time>2026-04-30T12:20:03Z</time></trkpt><trkpt lat="44.82355632071738" lon="9.196201050122085"><ele>413.71428571428567</ele><time>2026-04-30T12:20:09.999Z</time></trkpt><trkpt lat="44.82355193666291" lon="9.19610485237373"><ele>413.1428571428571</ele><time>2026-04-30T12:20:15.999Z</time></trkpt><trkpt lat="44.82355493626878" lon="9.19600931839334"><ele>412.57142857142856</ele><time>2026-04-30T12:20:21.999Z</time></trkpt><trkpt lat="44.82358778340497" lon="9.195921299757979"><ele>412.0</ele><time>2026-04-30T12:20:27.999Z</time></trkpt><trkpt lat="44.82361183552782" lon="9.19582591125971"><ele>411.99999999999994</ele><time>2026-04-30T12:20:33.999Z</time></trkpt><trkpt lat="44.82359815505661" lon="9.195739271440127"><ele>412.0</ele><time>2026-04-30T12:20:38.999Z</time></trkpt><trkpt lat="44.82359485806753" lon="9.195650117239952"><ele>412.0</ele><time>2026-04-30T12:20:44.999Z</time></trkpt><trkpt lat="44.82358813282963" lon="9.195542978303159"><ele>412.0</ele><time>2026-04-30T12:20:50.999Z</time></trkpt><trkpt lat="44.82355862905091" lon="9.195464116057774"><ele>412.0</ele><time>2026-04-30T12:20:55.999Z</time></trkpt><trkpt lat="44.82353179493467" lon="9.195383666610118"><ele>411.99999999999994</ele><time>2026-04-30T12:21:01.999Z</time></trkpt><trkpt lat="44.82357311723825" lon="9.195316520691172"><ele>412.0</ele><time>2026-04-30T12:21:08Z</time></trkpt><trkpt lat="44.82353474284661" lon="9.195245699920157"><ele>411.1428571428571</ele><time>2026-04-30T12:21:15Z</time></trkpt><trkpt lat="44.82349441091837" lon="9.195173560047069"><ele>410.2857142857143</ele><time>2026-04-30T12:21:22Z</time></trkpt><trkpt lat="44.823456454595686" lon="9.195072270174157"><ele>409.42857142857144</ele><time>2026-04-30T12:21:27Z</time></trkpt><trkpt lat="44.82341306391749" lon="9.194990694020868"><ele>408.57142857142856</ele><time>2026-04-30T12:21:33Z</time></trkpt><trkpt lat="44.82337213854406" lon="9.194917560008756"><ele>407.7142857142857</ele><time>2026-04-30T12:21:39Z</time></trkpt><trkpt lat="44.82334181249698" lon="9.194837993058371"><ele>406.85714285714283</ele><time>2026-04-30T12:21:45Z</time></trkpt><trkpt lat="44.82330044957985" lon="9.194769870982501"><ele>406.0</ele><time>2026-04-30T12:21:50Z</time></trkpt><trkpt lat="44.823267547779274" lon="9.194692371739178"><ele>406.0</ele><time>2026-04-30T12:21:56Z</time></trkpt><trkpt lat="44.82324847764469" lon="9.19459397101116"><ele>406.0</ele><time>2026-04-30T12:22:01Z</time></trkpt><trkpt lat="44.82322834737912" lon="9.194499773804562"><ele>406.0</ele><time>2026-04-30T12:22:06Z</time></trkpt><trkpt lat="44.823196050188805" lon="9.194408816754958"><ele>406.0</ele><time>2026-04-30T12:22:11Z</time></trkpt><trkpt lat="44.82316608516923" lon="9.194311965101125"><ele>406.0</ele><time>2026-04-30T12:22:15.999Z</time></trkpt><trkpt lat="44.82314529646163" lon="9.194210982705009"><ele>406.0</ele><time>2026-04-30T12:22:20.999Z</time></trkpt><trkpt lat="44.823139472633926" lon="9.194104146300893"><ele>406.0</ele><time>2026-04-30T12:22:26.999Z</time></trkpt><trkpt lat="44.82317224234295" lon="9.194024460857833"><ele>406.0</ele><time>2026-04-30T12:22:33.999Z</time></trkpt><trkpt lat="44.8231189169945" lon="9.193973334321699"><ele>406.0</ele><time>2026-04-30T12:22:41.999Z</time></trkpt><trkpt lat="44.823059922950755" lon="9.193938661583996"><ele>406.0</ele><time>2026-04-30T12:22:48.999Z</time></trkpt><trkpt lat="44.822994297438434" lon="9.193914007160346"><ele>406.0</ele><time>2026-04-30T12:22:54.999Z</time></trkpt><trkpt lat="44.8229277047006" lon="9.193876284933152"><ele>406.0</ele><time>2026-04-30T12:23:01.999Z</time></trkpt><trkpt lat="44.8228623851328" lon="9.193882350704962"><ele>406.0</ele><time>2026-04-30T12:23:06.999Z</time></trkpt><trkpt lat="44.82279292632087" lon="9.193863075160166"><ele>406.0</ele><time>2026-04-30T12:23:11.999Z</time></trkpt><trkpt lat="44.822722939175435" lon="9.193822615480274"><ele>406.0</ele><time>2026-04-30T12:23:17.999Z</time></trkpt><trkpt lat="44.82265880949698" lon="9.193768974372482"><ele>406.0</ele><time>2026-04-30T12:23:23.999Z</time></trkpt><trkpt lat="44.822589621727445" lon="9.193742741474583"><ele>406.0</ele><time>2026-04-30T12:23:29.999Z</time></trkpt><trkpt lat="44.822526212744386" lon="9.193726112791447"><ele>406.0</ele><time>2026-04-30T12:23:36.999Z</time></trkpt><trkpt lat="44.822460486336034" lon="9.19373329755545"><ele>406.0</ele><time>2026-04-30T12:23:42.999Z</time></trkpt><trkpt lat="44.82239760170876" lon="9.193775882898167"><ele>406.0</ele><time>2026-04-30T12:23:48.999Z</time></trkpt><trkpt lat="44.82234033846091" lon="9.193831673478293"><ele>406.0</ele><time>2026-04-30T12:23:55Z</time></trkpt><trkpt lat="44.82231890809971" lon="9.193922205302668"><ele>405.2857142857143</ele><time>2026-04-30T12:24:01Z</time></trkpt><trkpt lat="44.822290686619475" lon="9.194004280521819"><ele>404.57142857142856</ele><time>2026-04-30T12:24:06Z</time></trkpt><trkpt lat="44.822279577310944" lon="9.194110128441215"><ele>403.8571428571429</ele><time>2026-04-30T12:24:12Z</time></trkpt><trkpt lat="44.82228148555727" lon="9.194217609672647"><ele>403.1428571428571</ele><time>2026-04-30T12:24:17.999Z</time></trkpt><trkpt lat="44.822259312786834" lon="9.194316876625605"><ele>402.42857142857144</ele><time>2026-04-30T12:24:22.999Z</time></trkpt><trkpt lat="44.82227364046243" lon="9.194425925469067"><ele>401.7142857142857</ele><time>2026-04-30T12:24:28.999Z</time></trkpt><trkpt lat="44.82224981267028" lon="9.19451038871043"><ele>401.0</ele><time>2026-04-30T12:24:34.999Z</time></trkpt><trkpt lat="44.82222840093243" lon="9.19460500829209"><ele>401.0</ele><time>2026-04-30T12:24:39.999Z</time></trkpt><trkpt lat="44.822211451475816" lon="9.194713628664129"><ele>401.0</ele><time>2026-04-30T12:24:46.999Z</time></trkpt><trkpt lat="44.82219875395705" lon="9.194807282374896"><ele>401.0</ele><time>2026-04-30T12:24:52.999Z</time></trkpt><trkpt lat="44.82219625640026" lon="9.194912917496469"><ele>401.0</ele><time>2026-04-30T12:24:58.999Z</time></trkpt><trkpt lat="44.82219387865033" lon="9.195003374994512"><ele>401.0</ele><time>2026-04-30T12:25:03.999Z</time></trkpt><trkpt lat="44.8221721969164" lon="9.195090481914509"><ele>401.0</ele><time>2026-04-30T12:25:09.999Z</time></trkpt><trkpt lat="44.8221530209336" lon="9.195185819501784"><ele>401.0</ele><time>2026-04-30T12:25:14.999Z</time></trkpt><trkpt lat="44.82213776677247" lon="9.195274691105583"><ele>401.2857142857143</ele><time>2026-04-30T12:25:19.999Z</time></trkpt><trkpt lat="44.822121792580035" lon="9.195362183347294"><ele>401.57142857142856</ele><time>2026-04-30T12:25:24.999Z</time></trkpt><trkpt lat="44.82211661767203" lon="9.195464195507194"><ele>401.8571428571429</ele><time>2026-04-30T12:25:30.999Z</time></trkpt><trkpt lat="44.822099197042505" lon="9.195568519818048"><ele>402.1428571428571</ele><time>2026-04-30T12:25:36.999Z</time></trkpt><trkpt lat="44.82208745057242" lon="9.195657080621082"><ele>402.4285714285714</ele><time>2026-04-30T12:25:41.999Z</time></trkpt><trkpt lat="44.822066505403455" lon="9.195745355446476"><ele>402.7142857142857</ele><time>2026-04-30T12:25:46.999Z</time></trkpt><trkpt lat="44.822063622434925" lon="9.1958350928392"><ele>403.0</ele><time>2026-04-30T12:25:51.999Z</time></trkpt><trkpt lat="44.82203738246021" lon="9.195920477731212"><ele>403.42857142857144</ele><time>2026-04-30T12:25:56.999Z</time></trkpt><trkpt lat="44.82197879460009" lon="9.1959619262363"><ele>403.85714285714283</ele><time>2026-04-30T12:26:02Z</time></trkpt><trkpt lat="44.8219125531743" lon="9.195938315463458"><ele>404.2857142857143</ele><time>2026-04-30T12:26:07Z</time></trkpt><trkpt lat="44.8218490379697" lon="9.195912334807849"><ele>404.7142857142857</ele><time>2026-04-30T12:26:13Z</time></trkpt><trkpt lat="44.82178534443622" lon="9.19589756510111"><ele>405.1428571428571</ele><time>2026-04-30T12:26:18Z</time></trkpt><trkpt lat="44.82172161290039" lon="9.19588735771756"><ele>405.57142857142856</ele><time>2026-04-30T12:26:23Z</time></trkpt><trkpt lat="44.82165935783949" lon="9.195865797448093"><ele>406.0</ele><time>2026-04-30T12:26:28Z</time></trkpt><trkpt lat="44.82158804405563" lon="9.195837196089204"><ele>405.14285714285717</ele><time>2026-04-30T12:26:34Z</time></trkpt><trkpt lat="44.82152455891586" lon="9.195812054082154"><ele>404.2857142857143</ele><time>2026-04-30T12:26:39Z</time></trkpt><trkpt lat="44.82145966671829" lon="9.195784517310992"><ele>403.42857142857144</ele><time>2026-04-30T12:26:44Z</time></trkpt><trkpt lat="44.82139620441309" lon="9.195767505786174"><ele>402.57142857142856</ele><time>2026-04-30T12:26:49Z</time></trkpt><trkpt lat="44.82133274484166" lon="9.19574505354465"><ele>401.7142857142857</ele><time>2026-04-30T12:26:54Z</time></trkpt><trkpt lat="44.82126796618727" lon="9.195721879584672"><ele>400.8571428571429</ele><time>2026-04-30T12:26:59Z</time></trkpt><trkpt lat="44.82120246865344" lon="9.195708282025874"><ele>400.0</ele><time>2026-04-30T12:27:04Z</time></trkpt><trkpt lat="44.82112907498622" lon="9.195687828977164"><ele>400.14285714285717</ele><time>2026-04-30T12:27:10Z</time></trkpt><trkpt lat="44.821060229766125" lon="9.195660366039146"><ele>400.2857142857143</ele><time>2026-04-30T12:27:16Z</time></trkpt><trkpt lat="44.82098912583488" lon="9.195628259076104"><ele>400.42857142857144</ele><time>2026-04-30T12:27:22.999Z</time></trkpt><trkpt lat="44.82092227704614" lon="9.195606835510835"><ele>400.57142857142856</ele><time>2026-04-30T12:27:28.999Z</time></trkpt><trkpt lat="44.82086003269802" lon="9.195589576931292"><ele>400.7142857142857</ele><time>2026-04-30T12:27:33.999Z</time></trkpt><trkpt lat="44.82078665664976" lon="9.195564637188815"><ele>400.8571428571429</ele><time>2026-04-30T12:27:39.999Z</time></trkpt><trkpt lat="44.82071620823756" lon="9.195547807552918"><ele>401.0</ele><time>2026-04-30T12:27:44.999Z</time></trkpt><trkpt lat="44.82065119771571" lon="9.195520719738585"><ele>401.0</ele><time>2026-04-30T12:27:49.999Z</time></trkpt><trkpt lat="44.820576409228735" lon="9.195500325466812"><ele>401.0</ele><time>2026-04-30T12:27:55.999Z</time></trkpt><trkpt lat="44.820513033633" lon="9.195478497968312"><ele>401.0</ele><time>2026-04-30T12:28:01.999Z</time></trkpt><trkpt lat="44.82043947969507" lon="9.195463696920074"><ele>401.0</ele><time>2026-04-30T12:28:07.999Z</time></trkpt><trkpt lat="44.820374785290134" lon="9.195466735905354"><ele>401.0</ele><time>2026-04-30T12:28:12.999Z</time></trkpt><trkpt lat="44.820307698362555" lon="9.195499314817466"><ele>401.0</ele><time>2026-04-30T12:28:18.999Z</time></trkpt><trkpt lat="44.82030967228081" lon="9.19559990259018"><ele>401.0</ele><time>2026-04-30T12:28:25.999Z</time></trkpt></trkseg></trk></gpx>